sensor_id;sensor_type;location;lat;lon;timestamp;pressure;altitude;pressure_sealevel;temperature;humidity
46876;BME280;32866;50.160;14.768;2022-07-23T00:01:16;99417.72;;;19.54;92.92
46876;BME280;32866;50.160;14.768;2022-07-23T00:03:41;99406.56;;;19.43;94.87
46876;BME280;32866;50.160;14.768;2022-07-23T00:06:06;99407.06;;;19.47;94.43
46876;BME280;32866;50.160;14.768;2022-07-23T00:08:31;99400.47;;;19.39;94.12
46876;BME280;32866;50.160;14.768;2022-07-23T00:10:57;99408.09;;;19.44;94.37
46876;BME280;32866;50.160;14.768;2022-07-23T00:13:22;99389.31;;;19.27;94.24
46876;BME280;32866;50.160;14.768;2022-07-23T00:15:47;99392.59;;;19.26;96.41
46876;BME280;32866;50.160;14.768;2022-07-23T00:18:13;99384.22;;;19.20;96.53
46876;BME280;32866;50.160;14.768;2022-07-23T00:20:38;99394.09;;;19.27;96.55
46876;BME280;32866;50.160;14.768;2022-07-23T00:23:03;99366.00;;;19.08;96.70
46876;BME280;32866;50.160;14.768;2022-07-23T00:25:29;99389.25;;;19.16;96.18
46876;BME280;32866;50.160;14.768;2022-07-23T00:27:54;99398.03;;;19.03;96.62
46876;BME280;32866;50.160;14.768;2022-07-23T00:30:19;99367.16;;;18.90;98.78
46876;BME280;32866;50.160;14.768;2022-07-23T00:32:48;99393.69;;;18.97;98.96
46876;BME280;32866;50.160;14.768;2022-07-23T00:35:14;99391.91;;;18.94;100.00
46876;BME280;32866;50.160;14.768;2022-07-23T00:37:39;99378.56;;;18.98;100.00
46876;BME280;32866;50.160;14.768;2022-07-23T00:40:05;99356.41;;;18.66;100.00
46876;BME280;32866;50.160;14.768;2022-07-23T00:42:31;99397.19;;;18.91;100.00
46876;BME280;32866;50.160;14.768;2022-07-23T00:44:56;99375.34;;;18.73;100.00
46876;BME280;32866;50.160;14.768;2022-07-23T00:47:21;99394.97;;;18.96;100.00
46876;BME280;32866;50.160;14.768;2022-07-23T00:49:47;99393.06;;;18.81;100.00
46876;BME280;32866;50.160;14.768;2022-07-23T00:52:13;99369.28;;;18.69;100.00
46876;BME280;32866;50.160;14.768;2022-07-23T00:54:38;99385.34;;;18.91;100.00
46876;BME280;32866;50.160;14.768;2022-07-23T00:57:04;99376.66;;;18.78;100.00
46876;BME280;32866;50.160;14.768;2022-07-23T00:59:29;99374.38;;;18.76;100.00
46876;BME280;32866;50.160;14.768;2022-07-23T01:01:55;99361.94;;;18.66;100.00
46876;BME280;32866;50.160;14.768;2022-07-23T01:04:20;99378.13;;;18.73;100.00
46876;BME280;32866;50.160;14.768;2022-07-23T01:06:45;99374.75;;;18.58;100.00
46876;BME280;32866;50.160;14.768;2022-07-23T01:09:11;99380.88;;;18.67;100.00
46876;BME280;32866;50.160;14.768;2022-07-23T01:11:37;99370.72;;;18.59;100.00
46876;BME280;32866;50.160;14.768;2022-07-23T01:14:14;99371.72;;;18.56;100.00
46876;BME280;32866;50.160;14.768;2022-07-23T01:16:40;99351.69;;;18.40;100.00
46876;BME280;32866;50.160;14.768;2022-07-23T01:19:07;99367.06;;;18.41;100.00
46876;BME280;32866;50.160;14.768;2022-07-23T01:21:35;99361.25;;;18.39;100.00
46876;BME280;32866;50.160;14.768;2022-07-23T01:24:01;99344.28;;;18.31;100.00
46876;BME280;32866;50.160;14.768;2022-07-23T01:26:26;99357.97;;;18.41;100.00
46876;BME280;32866;50.160;14.768;2022-07-23T01:28:51;99321.97;;;18.14;100.00
46876;BME280;32866;50.160;14.768;2022-07-23T01:31:17;99356.19;;;18.38;100.00
46876;BME280;32866;50.160;14.768;2022-07-23T01:33:43;99324.75;;;18.14;100.00
46876;BME280;32866;50.160;14.768;2022-07-23T01:36:08;99345.41;;;18.45;100.00
46876;BME280;32866;50.160;14.768;2022-07-23T01:38:33;99351.97;;;18.48;100.00
46876;BME280;32866;50.160;14.768;2022-07-23T01:40:59;99349.78;;;18.58;100.00
46876;BME280;32866;50.160;14.768;2022-07-23T01:43:24;99320.88;;;18.38;100.00
46876;BME280;32866;50.160;14.768;2022-07-23T01:45:49;99334.91;;;18.61;100.00
46876;BME280;32866;50.160;14.768;2022-07-23T01:48:15;99319.53;;;18.22;100.00
46876;BME280;32866;50.160;14.768;2022-07-23T01:50:41;99335.75;;;18.35;100.00
46876;BME280;32866;50.160;14.768;2022-07-23T01:53:07;99326.38;;;18.27;100.00
46876;BME280;32866;50.160;14.768;2022-07-23T01:55:32;99326.31;;;18.21;100.00
46876;BME280;32866;50.160;14.768;2022-07-23T01:57:57;99328.31;;;18.21;100.00
46876;BME280;32866;50.160;14.768;2022-07-23T02:00:23;99330.91;;;17.98;100.00
46876;BME280;32866;50.160;14.768;2022-07-23T02:02:48;99325.69;;;18.06;100.00
46876;BME280;32866;50.160;14.768;2022-07-23T02:05:13;99327.84;;;17.96;100.00
46876;BME280;32866;50.160;14.768;2022-07-23T02:07:38;99326.88;;;17.99;100.00
46876;BME280;32866;50.160;14.768;2022-07-23T02:10:04;99329.22;;;18.06;100.00
46876;BME280;32866;50.160;14.768;2022-07-23T02:12:30;99329.50;;;18.08;100.00
46876;BME280;32866;50.160;14.768;2022-07-23T02:14:55;99307.84;;;17.86;100.00
46876;BME280;32866;50.160;14.768;2022-07-23T02:17:20;99320.66;;;18.10;100.00
46876;BME280;32866;50.160;14.768;2022-07-23T02:19:45;99283.50;;;17.96;100.00
46876;BME280;32866;50.160;14.768;2022-07-23T02:22:11;99324.50;;;18.18;100.00
46876;BME280;32866;50.160;14.768;2022-07-23T02:24:36;99307.53;;;18.05;100.00
46876;BME280;32866;50.160;14.768;2022-07-23T02:27:01;99318.91;;;18.07;100.00
46876;BME280;32866;50.160;14.768;2022-07-23T02:29:26;99300.91;;;17.96;100.00
46876;BME280;32866;50.160;14.768;2022-07-23T02:31:52;99319.66;;;18.07;100.00
46876;BME280;32866;50.160;14.768;2022-07-23T02:34:17;99313.75;;;17.94;100.00
46876;BME280;32866;50.160;14.768;2022-07-23T02:36:42;99322.66;;;18.04;100.00
46876;BME280;32866;50.160;14.768;2022-07-23T02:39:08;99310.22;;;17.93;100.00
46876;BME280;32866;50.160;14.768;2022-07-23T02:41:33;99320.53;;;17.93;100.00
46876;BME280;32866;50.160;14.768;2022-07-23T02:43:59;99320.41;;;17.82;100.00
46876;BME280;32866;50.160;14.768;2022-07-23T02:46:24;99331.19;;;17.79;100.00
46876;BME280;32866;50.160;14.768;2022-07-23T02:48:49;99308.66;;;17.66;100.00
46876;BME280;32866;50.160;14.768;2022-07-23T02:51:14;99327.22;;;17.86;100.00
46876;BME280;32866;50.160;14.768;2022-07-23T02:53:40;99302.69;;;17.47;100.00
46876;BME280;32866;50.160;14.768;2022-07-23T02:56:05;99332.09;;;17.65;100.00
46876;BME280;32866;50.160;14.768;2022-07-23T02:58:30;99315.78;;;17.47;100.00
46876;BME280;32866;50.160;14.768;2022-07-23T03:00:56;99334.91;;;17.71;100.00
46876;BME280;32866;50.160;14.768;2022-07-23T03:03:21;99323.22;;;17.61;100.00
46876;BME280;32866;50.160;14.768;2022-07-23T03:05:47;99328.56;;;17.65;100.00
46876;BME280;32866;50.160;14.768;2022-07-23T03:08:12;99331.53;;;17.61;100.00
46876;BME280;32866;50.160;14.768;2022-07-23T03:10:37;99322.31;;;17.70;100.00
46876;BME280;32866;50.160;14.768;2022-07-23T03:13:02;99306.19;;;17.68;100.00
46876;BME280;32866;50.160;14.768;2022-07-23T03:15:28;99318.03;;;17.95;100.00
46876;BME280;32866;50.160;14.768;2022-07-23T03:17:53;99314.72;;;17.91;100.00
46876;BME280;32866;50.160;14.768;2022-07-23T03:20:18;99314.78;;;17.96;100.00
46876;BME280;32866;50.160;14.768;2022-07-23T03:22:44;99305.50;;;17.79;100.00
46876;BME280;32866;50.160;14.768;2022-07-23T03:25:09;99317.75;;;17.93;100.00
46876;BME280;32866;50.160;14.768;2022-07-23T03:27:34;99300.44;;;17.77;100.00
46876;BME280;32866;50.160;14.768;2022-07-23T03:30:00;99297.75;;;17.83;100.00
46876;BME280;32866;50.160;14.768;2022-07-23T03:32:25;99304.03;;;17.84;100.00
46876;BME280;32866;50.160;14.768;2022-07-23T03:34:51;99299.63;;;17.92;100.00
46876;BME280;32866;50.160;14.768;2022-07-23T03:37:17;99291.22;;;17.86;100.00
46876;BME280;32866;50.160;14.768;2022-07-23T03:39:43;99283.00;;;17.71;100.00
46876;BME280;32866;50.160;14.768;2022-07-23T03:42:08;99282.59;;;17.78;100.00
46876;BME280;32866;50.160;14.768;2022-07-23T03:44:34;99261.56;;;17.66;100.00
46876;BME280;32866;50.160;14.768;2022-07-23T03:47:02;99253.75;;;17.65;100.00
46876;BME280;32866;50.160;14.768;2022-07-23T03:49:27;99278.41;;;17.89;100.00
46876;BME280;32866;50.160;14.768;2022-07-23T03:51:52;99273.41;;;17.93;100.00
46876;BME280;32866;50.160;14.768;2022-07-23T03:54:17;99280.03;;;18.01;100.00
46876;BME280;32866;50.160;14.768;2022-07-23T03:56:43;99273.06;;;17.85;100.00
46876;BME280;32866;50.160;14.768;2022-07-23T03:59:08;99280.81;;;18.02;100.00
46876;BME280;32866;50.160;14.768;2022-07-23T04:01:34;99274.47;;;18.01;100.00
46876;BME280;32866;50.160;14.768;2022-07-23T04:03:59;99268.72;;;18.05;100.00
46876;BME280;32866;50.160;14.768;2022-07-23T04:06:24;99260.19;;;18.08;100.00
46876;BME280;32866;50.160;14.768;2022-07-23T04:08:50;99253.91;;;18.13;100.00
46876;BME280;32866;50.160;14.768;2022-07-23T04:11:15;99232.66;;;18.05;100.00
46876;BME280;32866;50.160;14.768;2022-07-23T04:13:40;99236.75;;;18.09;100.00
46876;BME280;32866;50.160;14.768;2022-07-23T04:16:05;99209.94;;;17.95;100.00
46876;BME280;32866;50.160;14.768;2022-07-23T04:18:31;99228.97;;;18.13;100.00
46876;BME280;32866;50.160;14.768;2022-07-23T04:20:56;99204.59;;;17.91;100.00
46876;BME280;32866;50.160;14.768;2022-07-23T04:23:22;99247.72;;;18.30;100.00
46876;BME280;32866;50.160;14.768;2022-07-23T04:25:47;99252.81;;;18.37;100.00
46876;BME280;32866;50.160;14.768;2022-07-23T04:28:12;99281.63;;;18.51;100.00
46876;BME280;32866;50.160;14.768;2022-07-23T04:30:38;99261.88;;;18.38;100.00
46876;BME280;32866;50.160;14.768;2022-07-23T04:33:03;99273.63;;;18.59;100.00
46876;BME280;32866;50.160;14.768;2022-07-23T04:35:32;99271.56;;;18.53;100.00
46876;BME280;32866;50.160;14.768;2022-07-23T04:37:58;99266.06;;;18.59;100.00
46876;BME280;32866;50.160;14.768;2022-07-23T04:40:24;99284.25;;;18.66;100.00
46876;BME280;32866;50.160;14.768;2022-07-23T04:42:49;99287.59;;;18.81;100.00
46876;BME280;32866;50.160;14.768;2022-07-23T04:45:14;99257.47;;;18.57;100.00
46876;BME280;32866;50.160;14.768;2022-07-23T04:47:40;99281.09;;;18.84;100.00
46876;BME280;32866;50.160;14.768;2022-07-23T04:50:05;99254.25;;;18.70;100.00
46876;BME280;32866;50.160;14.768;2022-07-23T04:52:31;99290.53;;;19.09;100.00
46876;BME280;32866;50.160;14.768;2022-07-23T04:54:56;99291.09;;;19.25;99.38
46876;BME280;32866;50.160;14.768;2022-07-23T04:57:21;99297.16;;;19.35;98.40
46876;BME280;32866;50.160;14.768;2022-07-23T04:59:46;99289.59;;;19.35;97.05
46876;BME280;32866;50.160;14.768;2022-07-23T05:02:12;99297.13;;;19.23;97.74
46876;BME280;32866;50.160;14.768;2022-07-23T05:04:37;99305.00;;;19.42;98.87
46876;BME280;32866;50.160;14.768;2022-07-23T05:07:03;99287.56;;;19.24;99.29
46876;BME280;32866;50.160;14.768;2022-07-23T05:09:29;99315.41;;;19.58;97.95
46876;BME280;32866;50.160;14.768;2022-07-23T05:11:54;99282.03;;;19.41;99.37
46876;BME280;32866;50.160;14.768;2022-07-23T05:14:19;99318.72;;;19.62;98.50
46876;BME280;32866;50.160;14.768;2022-07-23T05:16:45;99300.00;;;19.57;97.55
46876;BME280;32866;50.160;14.768;2022-07-23T05:19:10;99304.81;;;19.68;97.63
46876;BME280;32866;50.160;14.768;2022-07-23T05:21:35;99313.72;;;19.78;98.31
46876;BME280;32866;50.160;14.768;2022-07-23T05:24:00;99277.25;;;19.53;98.14
46876;BME280;32866;50.160;14.768;2022-07-23T05:26:26;99303.31;;;19.73;97.14
46876;BME280;32866;50.160;14.768;2022-07-23T05:28:51;99294.22;;;19.61;97.01
46876;BME280;32866;50.160;14.768;2022-07-23T05:31:16;99306.84;;;19.73;99.01
46876;BME280;32866;50.160;14.768;2022-07-23T05:33:42;99318.50;;;19.77;98.72
46876;BME280;32866;50.160;14.768;2022-07-23T05:36:09;99316.50;;;19.83;100.00
46876;BME280;32866;50.160;14.768;2022-07-23T05:38:34;99309.09;;;19.63;100.00
46876;BME280;32866;50.160;14.768;2022-07-23T05:41:00;99323.25;;;19.65;100.00
46876;BME280;32866;50.160;14.768;2022-07-23T05:43:25;99287.31;;;19.34;100.00
46876;BME280;32866;50.160;14.768;2022-07-23T05:45:51;99309.59;;;19.56;99.49
46876;BME280;32866;50.160;14.768;2022-07-23T05:48:16;99309.84;;;19.53;100.00
46876;BME280;32866;50.160;14.768;2022-07-23T05:50:42;99297.47;;;19.42;99.17
46876;BME280;32866;50.160;14.768;2022-07-23T05:53:07;99309.31;;;19.37;100.00
46876;BME280;32866;50.160;14.768;2022-07-23T05:55:32;99339.44;;;19.61;100.00
46876;BME280;32866;50.160;14.768;2022-07-23T05:57:58;99336.34;;;19.48;100.00
46876;BME280;32866;50.160;14.768;2022-07-23T06:00:24;99337.59;;;19.41;100.00
46876;BME280;32866;50.160;14.768;2022-07-23T06:02:50;99350.97;;;19.37;100.00
46876;BME280;32866;50.160;14.768;2022-07-23T06:05:15;99331.78;;;19.39;100.00
46876;BME280;32866;50.160;14.768;2022-07-23T06:07:41;99344.44;;;19.46;100.00
46876;BME280;32866;50.160;14.768;2022-07-23T06:10:06;99352.03;;;19.51;100.00
46876;BME280;32866;50.160;14.768;2022-07-23T06:12:31;99329.47;;;19.32;100.00
46876;BME280;32866;50.160;14.768;2022-07-23T06:14:57;99336.31;;;19.37;100.00
46876;BME280;32866;50.160;14.768;2022-07-23T06:17:22;99343.44;;;19.49;100.00
46876;BME280;32866;50.160;14.768;2022-07-23T06:19:47;99344.44;;;19.46;100.00
46876;BME280;32866;50.160;14.768;2022-07-23T06:22:13;99315.28;;;19.13;100.00
46876;BME280;32866;50.160;14.768;2022-07-23T06:24:38;99312.50;;;19.13;100.00
46876;BME280;32866;50.160;14.768;2022-07-23T06:27:04;99335.31;;;19.34;100.00
46876;BME280;32866;50.160;14.768;2022-07-23T06:29:29;99341.81;;;19.25;100.00
46876;BME280;32866;50.160;14.768;2022-07-23T06:31:54;99329.72;;;19.28;100.00
46876;BME280;32866;50.160;14.768;2022-07-23T06:34:20;99331.72;;;19.22;100.00
46876;BME280;32866;50.160;14.768;2022-07-23T06:36:45;99341.13;;;19.36;100.00
46876;BME280;32866;50.160;14.768;2022-07-23T06:39:10;99352.25;;;19.42;100.00
46876;BME280;32866;50.160;14.768;2022-07-23T06:41:36;99354.50;;;19.38;100.00
46876;BME280;32866;50.160;14.768;2022-07-23T06:44:01;99331.00;;;19.33;100.00
46876;BME280;32866;50.160;14.768;2022-07-23T06:46:27;99340.91;;;19.51;100.00
46876;BME280;32866;50.160;14.768;2022-07-23T06:48:52;99369.81;;;19.82;100.00
46876;BME280;32866;50.160;14.768;2022-07-23T06:51:17;99369.84;;;19.93;100.00
46876;BME280;32866;50.160;14.768;2022-07-23T06:53:43;99367.06;;;19.93;100.00
46876;BME280;32866;50.160;14.768;2022-07-23T06:56:08;99345.31;;;19.86;100.00
46876;BME280;32866;50.160;14.768;2022-07-23T06:58:34;99336.72;;;19.90;100.00
46876;BME280;32866;50.160;14.768;2022-07-23T07:00:59;99331.44;;;20.09;100.00
46876;BME280;32866;50.160;14.768;2022-07-23T07:03:24;99342.03;;;20.16;100.00
46876;BME280;32866;50.160;14.768;2022-07-23T07:05:50;99325.09;;;20.14;100.00
46876;BME280;32866;50.160;14.768;2022-07-23T07:08:16;99330.16;;;20.32;100.00
46876;BME280;32866;50.160;14.768;2022-07-23T07:10:41;99325.34;;;20.27;100.00
46876;BME280;32866;50.160;14.768;2022-07-23T07:13:06;99322.31;;;20.36;100.00
46876;BME280;32866;50.160;14.768;2022-07-23T07:15:32;99302.59;;;20.23;100.00
46876;BME280;32866;50.160;14.768;2022-07-23T07:17:57;99321.53;;;20.36;100.00
46876;BME280;32866;50.160;14.768;2022-07-23T07:20:22;99321.06;;;20.43;100.00
46876;BME280;32866;50.160;14.768;2022-07-23T07:22:49;99313.44;;;20.55;100.00
46876;BME280;32866;50.160;14.768;2022-07-23T07:25:14;99298.31;;;20.28;100.00
46876;BME280;32866;50.160;14.768;2022-07-23T07:27:40;99334.69;;;20.52;100.00
46876;BME280;32866;50.160;14.768;2022-07-23T07:30:06;99332.94;;;20.55;100.00
46876;BME280;32866;50.160;14.768;2022-07-23T07:32:32;99326.34;;;20.58;100.00
46876;BME280;32866;50.160;14.768;2022-07-23T07:34:58;99334.94;;;20.71;100.00
46876;BME280;32866;50.160;14.768;2022-07-23T07:37:23;99328.88;;;20.67;100.00
46876;BME280;32866;50.160;14.768;2022-07-23T07:39:49;99337.97;;;20.85;100.00
46876;BME280;32866;50.160;14.768;2022-07-23T07:42:14;99337.44;;;20.92;100.00
46876;BME280;32866;50.160;14.768;2022-07-23T07:44:39;99343.69;;;21.09;100.00
46876;BME280;32866;50.160;14.768;2022-07-23T07:49:40;99333.75;;;21.20;100.00
46876;BME280;32866;50.160;14.768;2022-07-23T07:52:05;99344.38;;;21.27;100.00
46876;BME280;32866;50.160;14.768;2022-07-23T07:54:31;99344.31;;;21.38;100.00
46876;BME280;32866;50.160;14.768;2022-07-23T07:56:57;99345.81;;;21.51;100.00
46876;BME280;32866;50.160;14.768;2022-07-23T07:59:22;99341.41;;;21.72;100.00
46876;BME280;32866;50.160;14.768;2022-07-23T08:01:48;99358.19;;;21.97;96.33
46876;BME280;32866;50.160;14.768;2022-07-23T08:04:13;99355.03;;;22.17;95.97
46876;BME280;32866;50.160;14.768;2022-07-23T08:06:39;99319.28;;;22.16;91.91
46876;BME280;32866;50.160;14.768;2022-07-23T08:09:04;99352.09;;;22.65;88.65
46876;BME280;32866;50.160;14.768;2022-07-23T08:11:29;99332.88;;;22.80;90.90
46876;BME280;32866;50.160;14.768;2022-07-23T08:13:55;99328.34;;;23.02;87.01
46876;BME280;32866;50.160;14.768;2022-07-23T08:16:20;99344.91;;;23.19;90.00
46876;BME280;32866;50.160;14.768;2022-07-23T08:18:46;99353.47;;;23.26;94.23
46876;BME280;32866;50.160;14.768;2022-07-23T08:21:11;99338.19;;;23.27;88.61
46876;BME280;32866;50.160;14.768;2022-07-23T08:23:37;99355.44;;;23.50;85.98
46876;BME280;32866;50.160;14.768;2022-07-23T08:26:02;99355.59;;;23.58;88.70
46876;BME280;32866;50.160;14.768;2022-07-23T08:28:28;99346.44;;;23.58;90.40
46876;BME280;32866;50.160;14.768;2022-07-23T08:30:53;99346.31;;;23.50;91.55
46876;BME280;32866;50.160;14.768;2022-07-23T08:33:19;99330.69;;;23.41;92.23
46876;BME280;32866;50.160;14.768;2022-07-23T08:35:48;99332.78;;;23.35;91.51
46876;BME280;32866;50.160;14.768;2022-07-23T08:38:17;99330.81;;;23.49;90.12
46876;BME280;32866;50.160;14.768;2022-07-23T08:40:48;99358.00;;;23.67;83.29
46876;BME280;32866;50.160;14.768;2022-07-23T08:43:16;99351.03;;;23.74;87.76
46876;BME280;32866;50.160;14.768;2022-07-23T08:45:45;99352.72;;;23.83;80.98
46876;BME280;32866;50.160;14.768;2022-07-23T08:48:16;99355.56;;;23.96;77.80
46876;BME280;32866;50.160;14.768;2022-07-23T08:50:46;99362.28;;;24.06;77.93
46876;BME280;32866;50.160;14.768;2022-07-23T08:53:13;99356.25;;;24.02;80.66
46876;BME280;32866;50.160;14.768;2022-07-23T08:55:39;99360.47;;;24.09;80.11
46876;BME280;32866;50.160;14.768;2022-07-23T08:58:05;99363.94;;;24.15;78.37
46876;BME280;32866;50.160;14.768;2022-07-23T09:00:31;99369.28;;;24.32;76.22
46876;BME280;32866;50.160;14.768;2022-07-23T09:02:57;99360.50;;;24.55;74.51
46876;BME280;32866;50.160;14.768;2022-07-23T09:05:23;99367.84;;;24.71;74.28
46876;BME280;32866;50.160;14.768;2022-07-23T09:08:08;99373.66;;;24.73;74.11
46876;BME280;32866;50.160;14.768;2022-07-23T09:10:56;99375.84;;;24.67;77.68
46876;BME280;32866;50.160;14.768;2022-07-23T09:15:55;99353.06;;;25.85;69.37
46876;BME280;32866;50.160;14.768;2022-07-23T09:18:31;99356.91;;;26.88;68.93
46876;BME280;32866;50.160;14.768;2022-07-23T09:21:13;99351.97;;;27.46;64.50
46876;BME280;32866;50.160;14.768;2022-07-23T09:23:43;99342.38;;;28.01;60.43
46876;BME280;32866;50.160;14.768;2022-07-23T09:29:06;99345.97;;;28.24;57.25
46876;BME280;32866;50.160;14.768;2022-07-23T09:32:02;99351.41;;;27.99;57.07
46876;BME280;32866;50.160;14.768;2022-07-23T09:34:34;99350.88;;;27.49;61.65
46876;BME280;32866;50.160;14.768;2022-07-23T09:37:16;99342.81;;;27.16;56.83
46876;BME280;32866;50.160;14.768;2022-07-23T09:39:43;99340.97;;;27.19;55.27
46876;BME280;32866;50.160;14.768;2022-07-23T09:42:25;99333.22;;;27.48;56.36
46876;BME280;32866;50.160;14.768;2022-07-23T09:44:52;99341.94;;;27.81;54.27
46876;BME280;32866;50.160;14.768;2022-07-23T09:47:19;99338.63;;;28.13;54.62
46876;BME280;32866;50.160;14.768;2022-07-23T09:50:04;99343.13;;;28.01;53.27
46876;BME280;32866;50.160;14.768;2022-07-23T09:52:36;99335.44;;;27.94;53.12
46876;BME280;32866;50.160;14.768;2022-07-23T09:55:05;99334.31;;;28.59;52.79
46876;BME280;32866;50.160;14.768;2022-07-23T09:57:32;99316.69;;;29.14;53.48
46876;BME280;32866;50.160;14.768;2022-07-23T10:00:00;99336.53;;;28.76;50.90
46876;BME280;32866;50.160;14.768;2022-07-23T10:02:28;99332.22;;;28.44;51.68
46876;BME280;32866;50.160;14.768;2022-07-23T10:04:57;99327.16;;;28.73;52.48
46876;BME280;32866;50.160;14.768;2022-07-23T10:07:25;99335.63;;;28.73;51.42
46876;BME280;32866;50.160;14.768;2022-07-23T10:09:52;99341.00;;;29.02;51.32
46876;BME280;32866;50.160;14.768;2022-07-23T10:12:19;99326.03;;;29.40;49.35
46876;BME280;32866;50.160;14.768;2022-07-23T10:14:47;99333.25;;;29.91;51.07
46876;BME280;32866;50.160;14.768;2022-07-23T10:17:13;99323.81;;;29.64;48.84
46876;BME280;32866;50.160;14.768;2022-07-23T10:19:39;99330.06;;;29.54;48.57
46876;BME280;32866;50.160;14.768;2022-07-23T10:22:08;99318.97;;;29.08;49.49
46876;BME280;32866;50.160;14.768;2022-07-23T10:24:45;99331.94;;;29.11;51.04
46876;BME280;32866;50.160;14.768;2022-07-23T10:34:58;99343.41;;;29.94;46.69
46876;BME280;32866;50.160;14.768;2022-07-23T10:37:34;99337.53;;;30.25;46.65
46876;BME280;32866;50.160;14.768;2022-07-23T10:40:16;99351.41;;;30.31;46.02
46876;BME280;32866;50.160;14.768;2022-07-23T10:42:46;99345.53;;;30.37;46.60
46876;BME280;32866;50.160;14.768;2022-07-23T10:45:33;99343.09;;;30.33;46.55
46876;BME280;32866;50.160;14.768;2022-07-23T10:48:15;99329.34;;;29.46;48.05
46876;BME280;32866;50.160;14.768;2022-07-23T10:50:41;99352.22;;;29.99;50.03
46876;BME280;32866;50.160;14.768;2022-07-23T10:53:16;99354.38;;;30.41;46.47
46876;BME280;32866;50.160;14.768;2022-07-23T10:55:50;99335.72;;;30.80;49.28
46876;BME280;32866;50.160;14.768;2022-07-23T10:58:22;99316.19;;;30.57;44.91
46876;BME280;32866;50.160;14.768;2022-07-23T11:00:48;99323.50;;;30.78;45.79
46876;BME280;32866;50.160;14.768;2022-07-23T11:03:34;99332.22;;;31.24;46.29
46876;BME280;32866;50.160;14.768;2022-07-23T11:06:03;99341.59;;;31.44;44.15
46876;BME280;32866;50.160;14.768;2022-07-23T11:08:29;99326.25;;;31.03;46.10
46876;BME280;32866;50.160;14.768;2022-07-23T11:11:07;99330.44;;;31.47;47.07
46876;BME280;32866;50.160;14.768;2022-07-23T11:26:43;99312.50;;;30.47;49.35
46876;BME280;32866;50.160;14.768;2022-07-23T11:32:04;99313.16;;;31.70;46.44
46876;BME280;32866;50.160;14.768;2022-07-23T11:34:43;99300.75;;;32.02;48.34
46876;BME280;32866;50.160;14.768;2022-07-23T11:37:24;99289.66;;;32.24;43.45
46876;BME280;32866;50.160;14.768;2022-07-23T11:39:54;99271.16;;;31.76;47.51
46876;BME280;32866;50.160;14.768;2022-07-23T11:42:20;99286.69;;;31.30;48.47
46876;BME280;32866;50.160;14.768;2022-07-23T11:44:46;99283.72;;;30.93;52.87
46876;BME280;32866;50.160;14.768;2022-07-23T11:47:12;99260.97;;;30.56;49.43
46876;BME280;32866;50.160;14.768;2022-07-23T11:49:38;99262.00;;;31.40;52.14
46876;BME280;32866;50.160;14.768;2022-07-23T11:52:14;99278.31;;;31.50;48.36
46876;BME280;32866;50.160;14.768;2022-07-23T11:57:16;99245.22;;;32.26;48.54
46876;BME280;32866;50.160;14.768;2022-07-23T11:59:43;99245.50;;;32.21;45.48
46876;BME280;32866;50.160;14.768;2022-07-23T12:02:11;99255.94;;;31.44;49.94
46876;BME280;32866;50.160;14.768;2022-07-23T12:04:38;99270.19;;;31.36;47.71
46876;BME280;32866;50.160;14.768;2022-07-23T12:07:04;99259.47;;;30.73;50.32
46876;BME280;32866;50.160;14.768;2022-07-23T12:09:47;99283.19;;;29.92;52.21
46876;BME280;32866;50.160;14.768;2022-07-23T12:12:12;99286.34;;;28.90;53.11
46876;BME280;32866;50.160;14.768;2022-07-23T12:14:47;99321.38;;;28.56;54.16
46876;BME280;32866;50.160;14.768;2022-07-23T12:17:13;99383.16;;;27.63;71.61
46876;BME280;32866;50.160;14.768;2022-07-23T12:19:39;99377.03;;;25.39;78.10
46876;BME280;32866;50.160;14.768;2022-07-23T12:22:04;99403.66;;;23.76;87.24
46876;BME280;32866;50.160;14.768;2022-07-23T12:24:30;99352.84;;;22.90;98.52
46876;BME280;32866;50.160;14.768;2022-07-23T12:27:11;99337.88;;;22.38;100.00
46876;BME280;32866;50.160;14.768;2022-07-23T12:29:37;99369.59;;;22.65;100.00
46876;BME280;32866;50.160;14.768;2022-07-23T12:32:18;99361.97;;;22.41;100.00
46876;BME280;32866;50.160;14.768;2022-07-23T12:34:43;99381.81;;;22.32;100.00
46876;BME280;32866;50.160;14.768;2022-07-23T12:37:26;99361.63;;;22.14;100.00
46876;BME280;32866;50.160;14.768;2022-07-23T12:39:51;99344.97;;;22.03;100.00
46876;BME280;32866;50.160;14.768;2022-07-23T12:42:16;99322.50;;;21.90;100.00
46876;BME280;32866;50.160;14.768;2022-07-23T12:45:03;99332.13;;;21.53;100.00
46876;BME280;32866;50.160;14.768;2022-07-23T12:47:29;99324.56;;;21.47;100.00
46876;BME280;32866;50.160;14.768;2022-07-23T12:49:54;99309.34;;;21.48;100.00
46876;BME280;32866;50.160;14.768;2022-07-23T12:52:19;99310.28;;;21.57;100.00
46876;BME280;32866;50.160;14.768;2022-07-23T12:54:45;99291.03;;;21.59;100.00
46876;BME280;32866;50.160;14.768;2022-07-23T12:57:10;99324.06;;;21.85;100.00
46876;BME280;32866;50.160;14.768;2022-07-23T12:59:35;99341.50;;;21.91;100.00
46876;BME280;32866;50.160;14.768;2022-07-23T13:02:02;99340.50;;;21.89;100.00
46876;BME280;32866;50.160;14.768;2022-07-23T13:04:27;99364.75;;;22.05;100.00
46876;BME280;32866;50.160;14.768;2022-07-23T13:06:58;99375.75;;;22.22;100.00
46876;BME280;32866;50.160;14.768;2022-07-23T13:09:27;99370.69;;;22.20;100.00
46876;BME280;32866;50.160;14.768;2022-07-23T13:11:54;99361.88;;;22.16;100.00
46876;BME280;32866;50.160;14.768;2022-07-23T13:14:21;99365.13;;;22.20;100.00
46876;BME280;32866;50.160;14.768;2022-07-23T13:16:50;99335.56;;;22.06;100.00